sensor_id;sensor_type;location;lat;lon;timestamp;temperature;humidity
8402;DHT22;4238;48.404;9.498;2022-10-31T00:01:48;9.00;99.90
8402;DHT22;4238;48.404;9.498;2022-10-31T00:04:15;8.90;99.90
8402;DHT22;4238;48.404;9.498;2022-10-31T00:06:42;8.90;99.90
8402;DHT22;4238;48.404;9.498;2022-10-31T00:09:10;9.00;97.20
8402;DHT22;4238;48.404;9.498;2022-10-31T00:11:37;8.90;97.90
8402;DHT22;4238;48.404;9.498;2022-10-31T00:14:04;8.80;99.10
8402;DHT22;4238;48.404;9.498;2022-10-31T00:16:33;8.80;99.90
8402;DHT22;4238;48.404;9.498;2022-10-31T00:19:01;8.80;99.90
8402;DHT22;4238;48.404;9.498;2022-10-31T00:21:29;8.70;99.90
8402;DHT22;4238;48.404;9.498;2022-10-31T00:23:57;8.80;99.90
8402;DHT22;4238;48.404;9.498;2022-10-31T00:26:24;8.90;99.90
8402;DHT22;4238;48.404;9.498;2022-10-31T00:28:51;8.90;96.40
8402;DHT22;4238;48.404;9.498;2022-10-31T00:31:18;8.90;99.30
8402;DHT22;4238;48.404;9.498;2022-10-31T00:33:47;8.80;99.90
8402;DHT22;4238;48.404;9.498;2022-10-31T00:36:15;8.80;99.90
8402;DHT22;4238;48.404;9.498;2022-10-31T00:38:42;9.00;99.90
8402;DHT22;4238;48.404;9.498;2022-10-31T00:41:10;9.10;99.90
8402;DHT22;4238;48.404;9.498;2022-10-31T00:43:37;9.10;99.90
8402;DHT22;4238;48.404;9.498;2022-10-31T00:46:04;9.10;99.90
8402;DHT22;4238;48.404;9.498;2022-10-31T00:48:31;9.00;99.20
8402;DHT22;4238;48.404;9.498;2022-10-31T00:50:59;9.00;99.90
8402;DHT22;4238;48.404;9.498;2022-10-31T00:53:26;9.00;99.90
8402;DHT22;4238;48.404;9.498;2022-10-31T00:55:53;9.00;99.90
8402;DHT22;4238;48.404;9.498;2022-10-31T00:58:20;9.10;99.90
8402;DHT22;4238;48.404;9.498;2022-10-31T01:00:47;9.10;99.90
8402;DHT22;4238;48.404;9.498;2022-10-31T01:03:20;9.10;98.00
8402;DHT22;4238;48.404;9.498;2022-10-31T01:05:56;9.00;97.60
8402;DHT22;4238;48.404;9.498;2022-10-31T01:08:25;9.10;99.70
8402;DHT22;4238;48.404;9.498;2022-10-31T01:11:03;9.30;99.90
8402;DHT22;4238;48.404;9.498;2022-10-31T01:13:30;9.40;95.50
8402;DHT22;4238;48.404;9.498;2022-10-31T01:15:58;9.30;95.40
8402;DHT22;4238;48.404;9.498;2022-10-31T01:18:25;9.20;97.80
8402;DHT22;4238;48.404;9.498;2022-10-31T01:21:00;9.20;99.90
8402;DHT22;4238;48.404;9.498;2022-10-31T01:23:29;9.20;99.90
8402;DHT22;4238;48.404;9.498;2022-10-31T01:26:04;9.20;99.90
8402;DHT22;4238;48.404;9.498;2022-10-31T01:28:31;9.20;99.90
8402;DHT22;4238;48.404;9.498;2022-10-31T01:31:01;9.20;99.80
8402;DHT22;4238;48.404;9.498;2022-10-31T01:33:28;9.20;97.70
8402;DHT22;4238;48.404;9.498;2022-10-31T01:35:55;9.20;99.90
8402;DHT22;4238;48.404;9.498;2022-10-31T01:38:22;9.10;99.90
8402;DHT22;4238;48.404;9.498;2022-10-31T01:40:51;9.10;99.90
8402;DHT22;4238;48.404;9.498;2022-10-31T01:43:18;9.00;99.90
8402;DHT22;4238;48.404;9.498;2022-10-31T01:45:50;9.00;99.90
8402;DHT22;4238;48.404;9.498;2022-10-31T01:48:20;9.00;99.90
8402;DHT22;4238;48.404;9.498;2022-10-31T01:50:52;9.10;99.90
8402;DHT22;4238;48.404;9.498;2022-10-31T01:53:21;9.00;99.90
8402;DHT22;4238;48.404;9.498;2022-10-31T01:55:50;9.10;99.90
8402;DHT22;4238;48.404;9.498;2022-10-31T01:58:20;9.00;99.30
8402;DHT22;4238;48.404;9.498;2022-10-31T02:00:51;9.00;99.20
8402;DHT22;4238;48.404;9.498;2022-10-31T02:03:20;8.90;99.90
8402;DHT22;4238;48.404;9.498;2022-10-31T02:05:48;8.80;99.90
8402;DHT22;4238;48.404;9.498;2022-10-31T02:08:20;8.70;99.90
8402;DHT22;4238;48.404;9.498;2022-10-31T02:10:48;8.70;99.90
8402;DHT22;4238;48.404;9.498;2022-10-31T02:13:17;8.70;99.90
8402;DHT22;4238;48.404;9.498;2022-10-31T02:15:49;8.60;99.90
8402;DHT22;4238;48.404;9.498;2022-10-31T02:18:16;8.60;99.90
8402;DHT22;4238;48.404;9.498;2022-10-31T02:20:51;8.60;99.90
8402;DHT22;4238;48.404;9.498;2022-10-31T02:23:42;8.60;99.90
8402;DHT22;4238;48.404;9.498;2022-10-31T02:32:25;8.50;99.90
8402;DHT22;4238;48.404;9.498;2022-10-31T02:34:58;8.50;99.90
8402;DHT22;4238;48.404;9.498;2022-10-31T02:37:33;8.50;99.90
8402;DHT22;4238;48.404;9.498;2022-10-31T02:40:08;8.40;99.90
8402;DHT22;4238;48.404;9.498;2022-10-31T02:42:42;8.40;99.90
8402;DHT22;4238;48.404;9.498;2022-10-31T02:45:17;8.40;99.90
8402;DHT22;4238;48.404;9.498;2022-10-31T02:47:48;8.40;99.90
8402;DHT22;4238;48.404;9.498;2022-10-31T02:50:22;8.30;99.90
8402;DHT22;4238;48.404;9.498;2022-10-31T02:52:51;8.20;99.90
8402;DHT22;4238;48.404;9.498;2022-10-31T02:55:42;8.10;99.90
8402;DHT22;4238;48.404;9.498;2022-10-31T02:58:12;8.10;99.90
8402;DHT22;4238;48.404;9.498;2022-10-31T03:00:51;8.10;99.90
8402;DHT22;4238;48.404;9.498;2022-10-31T03:03:27;8.00;99.90
8402;DHT22;4238;48.404;9.498;2022-10-31T03:06:01;8.00;99.90
8402;DHT22;4238;48.404;9.498;2022-10-31T03:08:34;7.90;99.90
8402;DHT22;4238;48.404;9.498;2022-10-31T03:11:03;7.90;99.90
8402;DHT22;4238;48.404;9.498;2022-10-31T03:13:34;7.90;99.90
8402;DHT22;4238;48.404;9.498;2022-10-31T03:16:08;7.90;99.90
8402;DHT22;4238;48.404;9.498;2022-10-31T03:18:40;7.80;99.90
8402;DHT22;4238;48.404;9.498;2022-10-31T03:21:10;7.80;99.90
8402;DHT22;4238;48.404;9.498;2022-10-31T03:23:40;7.80;99.90
8402;DHT22;4238;48.404;9.498;2022-10-31T03:26:09;7.80;99.90
8402;DHT22;4238;48.404;9.498;2022-10-31T03:28:45;7.90;99.90
8402;DHT22;4238;48.404;9.498;2022-10-31T03:31:17;8.00;99.90
8402;DHT22;4238;48.404;9.498;2022-10-31T03:33:47;8.00;99.90
8402;DHT22;4238;48.404;9.498;2022-10-31T03:36:16;7.90;99.90
8402;DHT22;4238;48.404;9.498;2022-10-31T03:38:45;7.80;99.90
8402;DHT22;4238;48.404;9.498;2022-10-31T03:41:17;7.70;99.90
8402;DHT22;4238;48.404;9.498;2022-10-31T03:43:52;7.70;99.90
8402;DHT22;4238;48.404;9.498;2022-10-31T03:46:21;7.80;99.90
8402;DHT22;4238;48.404;9.498;2022-10-31T03:48:50;7.80;99.90
8402;DHT22;4238;48.404;9.498;2022-10-31T03:51:22;7.80;99.90
8402;DHT22;4238;48.404;9.498;2022-10-31T03:53:54;7.80;99.90
8402;DHT22;4238;48.404;9.498;2022-10-31T03:56:28;7.70;99.90
8402;DHT22;4238;48.404;9.498;2022-10-31T03:59:00;7.70;99.90
8402;DHT22;4238;48.404;9.498;2022-10-31T04:01:31;7.70;99.90
8402;DHT22;4238;48.404;9.498;2022-10-31T04:04:01;7.70;99.90
8402;DHT22;4238;48.404;9.498;2022-10-31T04:06:30;7.60;99.90
8402;DHT22;4238;48.404;9.498;2022-10-31T04:09:00;7.70;99.90
8402;DHT22;4238;48.404;9.498;2022-10-31T04:11:30;7.80;99.90
8402;DHT22;4238;48.404;9.498;2022-10-31T04:14:00;7.80;99.90
8402;DHT22;4238;48.404;9.498;2022-10-31T04:16:27;7.80;99.90
8402;DHT22;4238;48.404;9.498;2022-10-31T04:18:55;7.70;99.90
8402;DHT22;4238;48.404;9.498;2022-10-31T04:21:28;7.60;99.90
8402;DHT22;4238;48.404;9.498;2022-10-31T04:23:56;7.60;99.90
8402;DHT22;4238;48.404;9.498;2022-10-31T04:26:23;7.70;99.90
8402;DHT22;4238;48.404;9.498;2022-10-31T04:28:50;7.70;99.90
8402;DHT22;4238;48.404;9.498;2022-10-31T04:31:17;7.70;99.90
8402;DHT22;4238;48.404;9.498;2022-10-31T04:33:44;7.60;99.90
8402;DHT22;4238;48.404;9.498;2022-10-31T04:36:10;7.50;99.90
8402;DHT22;4238;48.404;9.498;2022-10-31T04:38:39;7.50;99.90
8402;DHT22;4238;48.404;9.498;2022-10-31T04:41:05;7.50;99.90
8402;DHT22;4238;48.404;9.498;2022-10-31T04:43:32;7.50;99.90
8402;DHT22;4238;48.404;9.498;2022-10-31T04:45:59;7.50;99.90
8402;DHT22;4238;48.404;9.498;2022-10-31T04:48:26;7.50;99.90
8402;DHT22;4238;48.404;9.498;2022-10-31T04:50:58;7.50;99.90
8402;DHT22;4238;48.404;9.498;2022-10-31T04:53:25;7.40;99.90
8402;DHT22;4238;48.404;9.498;2022-10-31T04:55:53;7.50;99.90
8402;DHT22;4238;48.404;9.498;2022-10-31T04:58:20;7.50;99.90
8402;DHT22;4238;48.404;9.498;2022-10-31T05:00:47;7.40;99.90
8402;DHT22;4238;48.404;9.498;2022-10-31T05:03:17;7.40;99.90
8402;DHT22;4238;48.404;9.498;2022-10-31T05:05:44;7.30;99.90
8402;DHT22;4238;48.404;9.498;2022-10-31T05:08:11;7.40;99.90
8402;DHT22;4238;48.404;9.498;2022-10-31T05:10:38;7.30;99.90
8402;DHT22;4238;48.404;9.498;2022-10-31T05:13:07;7.30;99.90
8402;DHT22;4238;48.404;9.498;2022-10-31T05:15:34;7.20;99.90
8402;DHT22;4238;48.404;9.498;2022-10-31T05:18:01;7.20;99.90
8402;DHT22;4238;48.404;9.498;2022-10-31T05:20:30;7.10;99.90
8402;DHT22;4238;48.404;9.498;2022-10-31T05:22:58;7.20;99.90
8402;DHT22;4238;48.404;9.498;2022-10-31T05:25:27;7.20;99.90
8402;DHT22;4238;48.404;9.498;2022-10-31T05:27:55;7.20;99.90
8402;DHT22;4238;48.404;9.498;2022-10-31T05:30:25;7.20;99.90
8402;DHT22;4238;48.404;9.498;2022-10-31T05:32:53;7.20;99.90
8402;DHT22;4238;48.404;9.498;2022-10-31T05:35:22;7.10;99.90
8402;DHT22;4238;48.404;9.498;2022-10-31T05:37:50;7.10;99.90
8402;DHT22;4238;48.404;9.498;2022-10-31T05:40:18;7.00;99.90
8402;DHT22;4238;48.404;9.498;2022-10-31T05:42:51;7.00;99.90
8402;DHT22;4238;48.404;9.498;2022-10-31T05:45:19;6.90;99.90
8402;DHT22;4238;48.404;9.498;2022-10-31T05:47:52;6.90;99.90
8402;DHT22;4238;48.404;9.498;2022-10-31T05:50:19;6.90;99.90
8402;DHT22;4238;48.404;9.498;2022-10-31T05:52:46;6.90;99.90
8402;DHT22;4238;48.404;9.498;2022-10-31T05:55:13;6.90;99.90
8402;DHT22;4238;48.404;9.498;2022-10-31T05:57:40;6.90;99.90
8402;DHT22;4238;48.404;9.498;2022-10-31T06:00:08;6.90;99.90
8402;DHT22;4238;48.404;9.498;2022-10-31T06:02:35;6.90;99.90
8402;DHT22;4238;48.404;9.498;2022-10-31T06:05:04;6.90;99.90
8402;DHT22;4238;48.404;9.498;2022-10-31T06:07:34;7.00;99.90
8402;DHT22;4238;48.404;9.498;2022-10-31T06:10:02;6.90;99.90
8402;DHT22;4238;48.404;9.498;2022-10-31T06:12:30;6.90;99.90
8402;DHT22;4238;48.404;9.498;2022-10-31T06:14:57;6.90;99.90
8402;DHT22;4238;48.404;9.498;2022-10-31T06:17:24;6.90;99.90
8402;DHT22;4238;48.404;9.498;2022-10-31T06:19:51;6.80;99.90
8402;DHT22;4238;48.404;9.498;2022-10-31T06:22:19;6.90;99.90
8402;DHT22;4238;48.404;9.498;2022-10-31T06:24:46;6.90;99.90
8402;DHT22;4238;48.404;9.498;2022-10-31T06:27:13;6.90;99.90
8402;DHT22;4238;48.404;9.498;2022-10-31T06:29:39;7.00;99.90
8402;DHT22;4238;48.404;9.498;2022-10-31T06:32:09;7.10;99.90
8402;DHT22;4238;48.404;9.498;2022-10-31T06:34:36;7.10;99.90
8402;DHT22;4238;48.404;9.498;2022-10-31T06:37:05;7.10;99.90
8402;DHT22;4238;48.404;9.498;2022-10-31T06:39:33;7.10;99.90
8402;DHT22;4238;48.404;9.498;2022-10-31T06:42:00;7.20;99.90
8402;DHT22;4238;48.404;9.498;2022-10-31T06:44:27;7.30;99.90
8402;DHT22;4238;48.404;9.498;2022-10-31T06:46:57;7.40;99.90
8402;DHT22;4238;48.404;9.498;2022-10-31T06:49:23;7.40;99.90
8402;DHT22;4238;48.404;9.498;2022-10-31T06:51:50;7.50;99.90
8402;DHT22;4238;48.404;9.498;2022-10-31T06:54:17;7.50;99.90
8402;DHT22;4238;48.404;9.498;2022-10-31T06:56:47;7.60;99.90
8402;DHT22;4238;48.404;9.498;2022-10-31T06:59:14;7.70;99.90
8402;DHT22;4238;48.404;9.498;2022-10-31T07:01:41;7.80;99.90
8402;DHT22;4238;48.404;9.498;2022-10-31T07:04:10;7.90;99.90
8402;DHT22;4238;48.404;9.498;2022-10-31T07:06:37;7.90;99.90
8402;DHT22;4238;48.404;9.498;2022-10-31T07:09:04;8.00;99.90
8402;DHT22;4238;48.404;9.498;2022-10-31T07:11:31;8.00;99.90
8402;DHT22;4238;48.404;9.498;2022-10-31T07:14:00;8.10;99.90
8402;DHT22;4238;48.404;9.498;2022-10-31T07:16:26;8.20;99.90
8402;DHT22;4238;48.404;9.498;2022-10-31T07:18:53;8.20;99.90
8402;DHT22;4238;48.404;9.498;2022-10-31T07:21:20;8.30;99.90
8402;DHT22;4238;48.404;9.498;2022-10-31T07:23:48;8.30;99.90
8402;DHT22;4238;48.404;9.498;2022-10-31T07:26:15;8.50;99.90
8402;DHT22;4238;48.404;9.498;2022-10-31T07:28:42;8.60;99.90
8402;DHT22;4238;48.404;9.498;2022-10-31T07:31:10;8.70;99.90
8402;DHT22;4238;48.404;9.498;2022-10-31T07:33:37;8.80;99.90
8402;DHT22;4238;48.404;9.498;2022-10-31T07:36:04;8.90;99.90
8402;DHT22;4238;48.404;9.498;2022-10-31T07:38:31;9.00;99.90
8402;DHT22;4238;48.404;9.498;2022-10-31T07:40:58;9.20;99.90
8402;DHT22;4238;48.404;9.498;2022-10-31T07:43:25;9.30;99.90
8402;DHT22;4238;48.404;9.498;2022-10-31T07:45:53;9.40;99.90
8402;DHT22;4238;48.404;9.498;2022-10-31T07:48:21;9.60;99.90
8402;DHT22;4238;48.404;9.498;2022-10-31T07:50:48;9.80;99.90
8402;DHT22;4238;48.404;9.498;2022-10-31T07:53:16;9.90;99.90
8402;DHT22;4238;48.404;9.498;2022-10-31T07:55:43;10.00;99.90
8402;DHT22;4238;48.404;9.498;2022-10-31T07:58:12;10.20;99.90
8402;DHT22;4238;48.404;9.498;2022-10-31T08:00:40;10.30;99.90
8402;DHT22;4238;48.404;9.498;2022-10-31T08:03:09;10.40;99.90
8402;DHT22;4238;48.404;9.498;2022-10-31T08:05:38;10.60;99.90
8402;DHT22;4238;48.404;9.498;2022-10-31T08:08:06;10.70;99.90
8402;DHT22;4238;48.404;9.498;2022-10-31T08:10:34;10.90;99.90
8402;DHT22;4238;48.404;9.498;2022-10-31T08:13:03;11.00;99.90
8402;DHT22;4238;48.404;9.498;2022-10-31T08:15:31;11.20;99.90
8402;DHT22;4238;48.404;9.498;2022-10-31T08:17:59;11.30;99.90
8402;DHT22;4238;48.404;9.498;2022-10-31T08:20:27;11.50;99.90
8402;DHT22;4238;48.404;9.498;2022-10-31T08:22:57;11.70;99.90
8402;DHT22;4238;48.404;9.498;2022-10-31T08:25:25;11.80;99.90
8402;DHT22;4238;48.404;9.498;2022-10-31T08:27:53;12.00;99.90
8402;DHT22;4238;48.404;9.498;2022-10-31T08:30:22;12.20;99.90
8402;DHT22;4238;48.404;9.498;2022-10-31T08:32:57;12.40;99.90
8402;DHT22;4238;48.404;9.498;2022-10-31T08:35:24;12.60;99.90
8402;DHT22;4238;48.404;9.498;2022-10-31T08:37:52;12.80;99.90
8402;DHT22;4238;48.404;9.498;2022-10-31T08:40:21;12.90;99.90
8402;DHT22;4238;48.404;9.498;2022-10-31T08:42:56;13.10;99.90
8402;DHT22;4238;48.404;9.498;2022-10-31T08:45:23;13.30;99.20
8402;DHT22;4238;48.404;9.498;2022-10-31T08:47:50;13.50;93.30
8402;DHT22;4238;48.404;9.498;2022-10-31T08:50:17;13.70;90.50
8402;DHT22;4238;48.404;9.498;2022-10-31T08:52:44;13.80;90.70
8402;DHT22;4238;48.404;9.498;2022-10-31T08:55:10;14.00;85.80
8402;DHT22;4238;48.404;9.498;2022-10-31T08:57:39;14.20;77.60
8402;DHT22;4238;48.404;9.498;2022-10-31T09:00:07;14.40;84.40
8402;DHT22;4238;48.404;9.498;2022-10-31T09:02:34;14.60;80.90
8402;DHT22;4238;48.404;9.498;2022-10-31T09:05:02;14.80;86.10
8402;DHT22;4238;48.404;9.498;2022-10-31T09:07:29;14.90;90.10
8402;DHT22;4238;48.404;9.498;2022-10-31T09:09:56;15.10;87.00
8402;DHT22;4238;48.404;9.498;2022-10-31T09:12:23;15.20;73.80
8402;DHT22;4238;48.404;9.498;2022-10-31T09:14:51;15.40;75.60
8402;DHT22;4238;48.404;9.498;2022-10-31T09:17:18;15.50;68.30
8402;DHT22;4238;48.404;9.498;2022-10-31T09:19:45;15.60;66.50
8402;DHT22;4238;48.404;9.498;2022-10-31T09:22:12;15.90;55.70
8402;DHT22;4238;48.404;9.498;2022-10-31T09:24:39;15.90;59.20
8402;DHT22;4238;48.404;9.498;2022-10-31T09:27:06;16.10;49.10
8402;DHT22;4238;48.404;9.498;2022-10-31T09:29:34;16.30;47.50
8402;DHT22;4238;48.404;9.498;2022-10-31T09:32:02;16.60;36.90
8402;DHT22;4238;48.404;9.498;2022-10-31T09:34:29;16.70;31.20
8402;DHT22;4238;48.404;9.498;2022-10-31T09:36:56;16.90;28.40
8402;DHT22;4238;48.404;9.498;2022-10-31T09:39:23;17.20;35.90
8402;DHT22;4238;48.404;9.498;2022-10-31T09:42:08;17.30;29.70
8402;DHT22;4238;48.404;9.498;2022-10-31T09:44:50;17.60;23.20
8402;DHT22;4238;48.404;9.498;2022-10-31T09:47:27;17.80;10.30
8402;DHT22;4238;48.404;9.498;2022-10-31T09:50:07;18.00;12.30
8402;DHT22;4238;48.404;9.498;2022-10-31T09:52:41;18.10;1.00
8402;DHT22;4238;48.404;9.498;2022-10-31T09:55:15;18.00;1.00
8402;DHT22;4238;48.404;9.498;2022-10-31T09:57:44;18.10;1.00
8402;DHT22;4238;48.404;9.498;2022-10-31T10:00:16;18.10;1.00
8402;DHT22;4238;48.404;9.498;2022-10-31T10:02:47;18.30;1.00
8402;DHT22;4238;48.404;9.498;2022-10-31T10:05:18;18.40;1.00
8402;DHT22;4238;48.404;9.498;2022-10-31T10:07:54;18.60;1.00
8402;DHT22;4238;48.404;9.498;2022-10-31T10:10:27;18.80;1.00
8402;DHT22;4238;48.404;9.498;2022-10-31T10:13:11;19.00;1.00
8402;DHT22;4238;48.404;9.498;2022-10-31T10:15:58;19.10;1.00
8402;DHT22;4238;48.404;9.498;2022-10-31T10:18:36;19.30;1.00
8402;DHT22;4238;48.404;9.498;2022-10-31T10:21:15;19.60;1.00
8402;DHT22;4238;48.404;9.498;2022-10-31T10:23:52;19.70;1.00
8402;DHT22;4238;48.404;9.498;2022-10-31T10:26:36;19.90;1.00
8402;DHT22;4238;48.404;9.498;2022-10-31T10:29:21;20.00;91.60
8402;DHT22;4238;48.404;9.498;2022-10-31T10:31:51;19.90;99.90
8402;DHT22;4238;48.404;9.498;2022-10-31T10:34:23;20.00;1.00
8402;DHT22;4238;48.404;9.498;2022-10-31T10:36:56;20.10;1.00
8402;DHT22;4238;48.404;9.498;2022-10-31T10:39:29;20.10;1.00
8402;DHT22;4238;48.404;9.498;2022-10-31T10:41:59;20.10;99.90
8402;DHT22;4238;48.404;9.498;2022-10-31T10:44:46;20.10;1.00
8402;DHT22;4238;48.404;9.498;2022-10-31T10:47:41;20.40;1.00
8402;DHT22;4238;48.404;9.498;2022-10-31T10:50:14;20.50;99.90
8402;DHT22;4238;48.404;9.498;2022-10-31T10:52:49;20.10;99.90
8402;DHT22;4238;48.404;9.498;2022-10-31T10:55:26;20.40;99.90
8402;DHT22;4238;48.404;9.498;2022-10-31T10:57:58;20.40;1.00
8402;DHT22;4238;48.404;9.498;2022-10-31T11:00:30;20.30;45.40
8402;DHT22;4238;48.404;9.498;2022-10-31T11:02:58;20.50;99.90
8402;DHT22;4238;48.404;9.498;2022-10-31T11:05:32;20.70;1.00
8402;DHT22;4238;48.404;9.498;2022-10-31T11:08:01;20.70;99.90
8402;DHT22;4238;48.404;9.498;2022-10-31T11:10:28;21.00;99.90
8402;DHT22;4238;48.404;9.498;2022-10-31T11:13:05;21.00;99.90
8402;DHT22;4238;48.404;9.498;2022-10-31T11:15:36;20.90;1.00
8402;DHT22;4238;48.404;9.498;2022-10-31T11:18:04;21.30;1.00
8402;DHT22;4238;48.404;9.498;2022-10-31T11:20:34;21.50;99.90
8402;DHT22;4238;48.404;9.498;2022-10-31T11:23:15;21.60;6.20
8402;DHT22;4238;48.404;9.498;2022-10-31T11:25:49;21.80;1.00
8402;DHT22;4238;48.404;9.498;2022-10-31T11:28:17;21.90;99.90
8402;DHT22;4238;48.404;9.498;2022-10-31T11:30:46;22.00;99.90
8402;DHT22;4238;48.404;9.498;2022-10-31T11:33:20;21.60;99.90
8402;DHT22;4238;48.404;9.498;2022-10-31T11:35:50;21.70;99.90
8402;DHT22;4238;48.404;9.498;2022-10-31T11:38:21;21.70;99.90
8402;DHT22;4238;48.404;9.498;2022-10-31T11:40:53;21.40;90.40
8402;DHT22;4238;48.404;9.498;2022-10-31T11:43:21;21.40;99.90
8402;DHT22;4238;48.404;9.498;2022-10-31T11:45:49;21.50;99.90
8402;DHT22;4238;48.404;9.498;2022-10-31T11:48:17;21.40;99.90
8402;DHT22;4238;48.404;9.498;2022-10-31T11:50:50;21.40;78.70
8402;DHT22;4238;48.404;9.498;2022-10-31T11:53:20;21.70;99.90
8402;DHT22;4238;48.404;9.498;2022-10-31T11:56:01;21.60;1.00
8402;DHT22;4238;48.404;9.498;2022-10-31T11:58:30;21.60;1.00
8402;DHT22;4238;48.404;9.498;2022-10-31T12:00:58;21.10;99.90
8402;DHT22;4238;48.404;9.498;2022-10-31T12:03:44;21.40;1.00
8402;DHT22;4238;48.404;9.498;2022-10-31T12:06:20;21.80;99.90
8402;DHT22;4238;48.404;9.498;2022-10-31T12:08:47;21.70;67.60
8402;DHT22;4238;48.404;9.498;2022-10-31T12:11:33;22.00;99.90
8402;DHT22;4238;48.404;9.498;2022-10-31T12:14:12;22.00;45.40
8402;DHT22;4238;48.404;9.498;2022-10-31T12:16:49;21.70;99.90
8402;DHT22;4238;48.404;9.498;2022-10-31T12:19:27;21.40;99.90
8402;DHT22;4238;48.404;9.498;2022-10-31T12:22:05;21.10;1.00
8402;DHT22;4238;48.404;9.498;2022-10-31T12:24:49;20.50;1.00
8402;DHT22;4238;48.404;9.498;2022-10-31T12:27:28;20.50;94.30
8402;DHT22;4238;48.404;9.498;2022-10-31T12:30:08;20.30;99.90
8402;DHT22;4238;48.404;9.498;2022-10-31T12:32:46;19.90;1.00
8402;DHT22;4238;48.404;9.498;2022-10-31T12:35:30;19.90;1.00
8402;DHT22;4238;48.404;9.498;2022-10-31T12:38:17;19.80;3.90
8402;DHT22;4238;48.404;9.498;2022-10-31T12:40:58;19.90;1.00
8402;DHT22;4238;48.404;9.498;2022-10-31T12:43:35;19.80;99.90
8402;DHT22;4238;48.404;9.498;2022-10-31T12:46:07;19.70;99.90
8402;DHT22;4238;48.404;9.498;2022-10-31T12:49:03;19.70;1.00
8402;DHT22;4238;48.404;9.498;2022-10-31T12:51:40;19.60;64.00
8402;DHT22;4238;48.404;9.498;2022-10-31T12:54:22;19.50;99.90
8402;DHT22;4238;48.404;9.498;2022-10-31T12:56:56;19.40;1.00
8402;DHT22;4238;48.404;9.498;2022-10-31T12:59:29;19.30;99.90
8402;DHT22;4238;48.404;9.498;2022-10-31T13:02:02;19.10;1.00
8402;DHT22;4238;48.404;9.498;2022-10-31T13:04:38;19.10;99.90
8402;DHT22;4238;48.404;9.498;2022-10-31T13:07:12;19.10;1.00
8402;DHT22;4238;48.404;9.498;2022-10-31T13:09:46;19.10;1.00
8402;DHT22;4238;48.404;9.498;2022-10-31T13:12:17;19.10;99.90
8402;DHT22;4238;48.404;9.498;2022-10-31T13:14:48;19.10;1.00
8402;DHT22;4238;48.404;9.498;2022-10-31T13:17:23;19.20;1.00
8402;DHT22;4238;48.404;9.498;2022-10-31T13:19:55;19.20;99.90
8402;DHT22;4238;48.404;9.498;2022-10-31T13:22:26;19.20;1.00
8402;DHT22;4238;48.404;9.498;2022-10-31T13:24:59;19.20;1.00
8402;DHT22;4238;48.404;9.498;2022-10-31T13:27:30;19.20;1.00
8402;DHT22;4238;48.404;9.498;2022-10-31T13:30:03;19.10;61.20
8402;DHT22;4238;48.404;9.498;2022-10-31T13:32:38;19.10;99.90
8402;DHT22;4238;48.404;9.498;2022-10-31T13:35:14;19.10;1.00
8402;DHT22;4238;48.404;9.498;2022-10-31T13:37:46;19.10;99.90
8402;DHT22;4238;48.404;9.498;2022-10-31T13:40:25;19.00;99.90
8402;DHT22;4238;48.404;9.498;2022-10-31T13:42:58;19.00;99.90
8402;DHT22;4238;48.404;9.498;2022-10-31T13:45:27;19.10;99.90
8402;DHT22;4238;48.404;9.498;2022-10-31T13:47:58;19.10;1.00
8402;DHT22;4238;48.404;9.498;2022-10-31T13:50:27;19.10;99.90
8402;DHT22;4238;48.404;9.498;2022-10-31T13:53:12;19.40;1.00
8402;DHT22;4238;48.404;9.498;2022-10-31T13:55:42;19.70;1.00
8402;DHT22;4238;48.404;9.498;2022-10-31T13:58:22;19.90;99.90
8402;DHT22;4238;48.404;9.498;2022-10-31T14:01:11;20.20;99.90
8402;DHT22;4238;48.404;9.498;2022-10-31T14:03:41;20.50;99.90
8402;DHT22;4238;48.404;9.498;2022-10-31T14:06:10;20.50;99.90
8402;DHT22;4238;48.404;9.498;2022-10-31T14:08:40;20.30;99.90
8402;DHT22;4238;48.404;9.498;2022-10-31T14:11:20;20.20;99.90
8402;DHT22;4238;48.404;9.498;2022-10-31T14:13:48;19.80;1.00
8402;DHT22;4238;48.404;9.498;2022-10-31T14:16:19;19.80;99.90
8402;DHT22;4238;48.404;9.498;2022-10-31T14:18:50;19.90;1.00
8402;DHT22;4238;48.404;9.498;2022-10-31T14:21:27;20.00;1.00
8402;DHT22;4238;48.404;9.498;2022-10-31T14:23:55;20.00;99.50
8402;DHT22;4238;48.404;9.498;2022-10-31T14:26:51;20.00;1.00
8402;DHT22;4238;48.404;9.498;2022-10-31T14:29:25;19.80;99.90
8402;DHT22;4238;48.404;9.498;2022-10-31T14:31:55;19.70;1.00
8402;DHT22;4238;48.404;9.498;2022-10-31T14:34:26;19.60;1.00
8402;DHT22;4238;48.404;9.498;2022-10-31T14:37:08;19.40;99.90
8402;DHT22;4238;48.404;9.498;2022-10-31T14:39:48;19.40;99.90
8402;DHT22;4238;48.404;9.498;2022-10-31T14:42:33;19.40;1.00
8402;DHT22;4238;48.404;9.498;2022-10-31T14:45:25;19.30;99.90
8402;DHT22;4238;48.404;9.498;2022-10-31T14:48:11;19.30;99.90
8402;DHT22;4238;48.404;9.498;2022-10-31T14:50:45;19.10;1.00
8402;DHT22;4238;48.404;9.498;2022-10-31T14:53:18;19.00;30.10
8402;DHT22;4238;48.404;9.498;2022-10-31T14:55:48;18.80;99.90
8402;DHT22;4238;48.404;9.498;2022-10-31T14:58:19;18.80;99.90
8402;DHT22;4238;48.404;9.498;2022-10-31T15:00:48;18.70;99.90
8402;DHT22;4238;48.404;9.498;2022-10-31T15:03:18;18.60;99.90
8402;DHT22;4238;48.404;9.498;2022-10-31T15:05:50;18.40;99.90
8402;DHT22;4238;48.404;9.498;2022-10-31T15:08:31;18.20;99.90
8402;DHT22;4238;48.404;9.498;2022-10-31T15:10:58;17.70;1.00
8402;DHT22;4238;48.404;9.498;2022-10-31T15:13:30;17.50;99.90
8402;DHT22;4238;48.404;9.498;2022-10-31T15:15:57;17.30;99.90
8402;DHT22;4238;48.404;9.498;2022-10-31T15:18:25;17.30;1.00
8402;DHT22;4238;48.404;9.498;2022-10-31T15:20:54;17.40;99.90
8402;DHT22;4238;48.404;9.498;2022-10-31T15:23:24;17.20;99.90
8402;DHT22;4238;48.404;9.498;2022-10-31T15:25:58;17.10;1.00
8402;DHT22;4238;48.404;9.498;2022-10-31T15:28:26;16.90;1.00
8402;DHT22;4238;48.404;9.498;2022-10-31T15:30:56;16.70;1.00
8402;DHT22;4238;48.404;9.498;2022-10-31T15:33:25;16.50;1.00
8402;DHT22;4238;48.404;9.498;2022-10-31T15:35:57;16.20;1.00
8402;DHT22;4238;48.404;9.498;2022-10-31T15:38:24;16.00;1.00
8402;DHT22;4238;48.404;9.498;2022-10-31T15:40:55;15.80;1.00
8402;DHT22;4238;48.404;9.498;2022-10-31T15:43:23;15.70;1.00
8402;DHT22;4238;48.404;9.498;2022-10-31T15:45:50;15.50;1.00
8402;DHT22;4238;48.404;9.498;2022-10-31T15:48:22;15.20;1.00
8402;DHT22;4238;48.404;9.498;2022-10-31T15:50:52;14.90;1.00
8402;DHT22;4238;48.404;9.498;2022-10-31T15:53:21;14.70;1.00
8402;DHT22;4238;48.404;9.498;2022-10-31T15:55:51;14.70;1.00
8402;DHT22;4238;48.404;9.498;2022-10-31T15:58:20;14.60;1.00
8402;DHT22;4238;48.404;9.498;2022-10-31T16:00:58;14.50;1.00
8402;DHT22;4238;48.404;9.498;2022-10-31T16:03:28;14.30;2.60
8402;DHT22;4238;48.404;9.498;2022-10-31T16:05:56;14.00;11.80
8402;DHT22;4238;48.404;9.498;2022-10-31T16:08:32;14.00;11.90
8402;DHT22;4238;48.404;9.498;2022-10-31T16:11:13;13.80;15.30
8402;DHT22;4238;48.404;9.498;2022-10-31T16:13:53;13.70;19.00
8402;DHT22;4238;48.404;9.498;2022-10-31T16:16:21;13.50;26.60
8402;DHT22;4238;48.404;9.498;2022-10-31T16:18:51;13.40;28.80
8402;DHT22;4238;48.404;9.498;2022-10-31T16:21:25;13.40;29.00
8402;DHT22;4238;48.404;9.498;2022-10-31T16:23:58;13.20;25.00
8402;DHT22;4238;48.404;9.498;2022-10-31T16:26:26;13.10;37.70
8402;DHT22;4238;48.404;9.498;2022-10-31T16:28:54;13.30;42.10
8402;DHT22;4238;48.404;9.498;2022-10-31T16:31:28;13.10;24.20
8402;DHT22;4238;48.404;9.498;2022-10-31T16:34:05;12.90;29.80
8402;DHT22;4238;48.404;9.498;2022-10-31T16:36:33;12.80;39.10
8402;DHT22;4238;48.404;9.498;2022-10-31T16:39:04;12.70;42.10
8402;DHT22;4238;48.404;9.498;2022-10-31T16:41:33;12.50;47.20
8402;DHT22;4238;48.404;9.498;2022-10-31T16:44:02;12.50;54.90